createdAt,value
2017-04-06T00:00:42.808Z,925.05
2017-04-06T00:01:56.102Z,925.04
2017-04-06T00:03:09.370Z,925.08
2017-04-06T00:04:22.098Z,925.07
2017-04-06T00:05:35.415Z,925.06
2017-04-06T00:06:48.700Z,925.06
2017-04-06T00:08:02.007Z,925.08
2017-04-06T00:09:15.309Z,925.05
2017-04-06T00:10:28.559Z,925.08
2017-04-06T00:11:41.313Z,925.07
2017-04-06T00:12:54.647Z,925.06
2017-04-06T00:14:07.928Z,925.07
2017-04-06T00:15:21.182Z,925.07
2017-04-06T00:16:33.461Z,925.1
2017-04-06T00:17:46.210Z,925.09
2017-04-06T00:18:59.529Z,925.09
2017-04-06T00:20:12.777Z,925.07
2017-04-06T00:21:26.029Z,925.08
2017-04-06T00:22:38.817Z,925.05
2017-04-06T00:23:52.098Z,925.1
2017-04-06T00:25:05.425Z,925.08
2017-04-06T00:26:18.707Z,925.1
2017-04-06T00:27:31.983Z,925.08
2017-04-06T00:28:44.741Z,925.08
2017-04-06T00:29:57.497Z,925.11
2017-04-06T00:31:10.769Z,925.09
2017-04-06T00:32:24.042Z,925.1
2017-04-06T00:33:37.315Z,925.08
2017-04-06T00:34:50.063Z,925.09
2017-04-06T00:36:03.313Z,925.12
2017-04-06T00:37:16.467Z,925.11
2017-04-06T00:38:29.777Z,925.11
2017-04-06T00:39:43.080Z,925.12
2017-04-06T00:40:56.329Z,925.15
2017-04-06T00:42:09.588Z,925.12
2017-04-06T00:43:22.983Z,925.14
2017-04-06T00:44:36.267Z,925.16
2017-04-06T00:45:49.018Z,925.19
2017-04-06T00:47:02.272Z,925.22
2017-04-06T00:48:15.568Z,925.19
2017-04-06T00:49:28.312Z,925.21
2017-04-06T00:50:41.566Z,925.29
2017-04-06T00:51:54.852Z,925.28
2017-04-06T00:53:07.588Z,925.3
2017-04-06T00:54:20.338Z,925.27
2017-04-06T00:55:33.135Z,925.26
2017-04-06T00:56:46.432Z,925.29
2017-04-06T00:57:59.708Z,925.33
2017-04-06T00:59:12.981Z,925.33
2017-04-06T01:00:26.304Z,925.38
2017-04-06T01:01:39.053Z,925.37
2017-04-06T01:02:52.331Z,925.37
2017-04-06T01:04:05.137Z,925.41
2017-04-06T01:05:18.400Z,925.39
2017-04-06T01:06:31.669Z,925.4
2017-04-06T01:07:45.011Z,925.34
2017-04-06T01:08:58.273Z,925.39
2017-04-06T01:10:11.542Z,925.36
2017-04-06T01:11:24.356Z,925.33
2017-04-06T01:12:37.666Z,925.33
2017-04-06T01:13:50.918Z,925.34
2017-04-06T01:15:04.230Z,925.32
2017-04-06T01:16:17.505Z,925.37
2017-04-06T01:17:30.265Z,925.35
2017-04-06T01:18:43.590Z,925.33
2017-04-06T01:19:56.858Z,925.34
2017-04-06T01:21:10.140Z,925.37
2017-04-06T01:22:23.456Z,925.37
2017-04-06T01:23:36.757Z,925.36
2017-04-06T01:24:50.027Z,925.35
2017-04-06T01:26:02.786Z,925.38
2017-04-06T01:27:15.556Z,925.41
2017-04-06T01:28:28.850Z,925.37
2017-04-06T01:29:42.133Z,925.42
2017-04-06T01:30:55.408Z,925.37
2017-04-06T01:32:08.681Z,925.36
2017-04-06T01:33:21.955Z,925.36
2017-04-06T01:34:35.213Z,925.4
2017-04-06T01:35:48.458Z,925.38
2017-04-06T01:37:01.704Z,925.41
2017-04-06T01:38:15.200Z,925.39
2017-04-06T01:39:28.454Z,925.43
2017-04-06T01:40:41.742Z,925.44
2017-04-06T01:41:54.512Z,925.4
2017-04-06T01:43:07.759Z,925.34
2017-04-06T01:44:21.055Z,925.37
2017-04-06T01:45:34.315Z,925.36
2017-04-06T01:46:47.606Z,925.38
2017-04-06T01:48:00.343Z,925.4
2017-04-06T01:49:13.599Z,925.41
2017-04-06T01:50:26.903Z,925.41
2017-04-06T01:51:39.693Z,925.42
2017-04-06T01:52:52.984Z,925.36
2017-04-06T01:54:06.259Z,925.42
2017-04-06T01:55:19.027Z,925.37
2017-04-06T01:56:32.334Z,925.39
2017-04-06T01:57:45.105Z,925.36
2017-04-06T01:58:58.424Z,925.34
2017-04-06T02:00:10.677Z,925.34
2017-04-06T02:01:23.950Z,925.38
2017-04-06T02:02:37.216Z,925.36
2017-04-06T02:03:50.478Z,925.36
2017-04-06T02:05:03.237Z,925.34
2017-04-06T02:06:16.552Z,925.34
2017-04-06T02:07:29.886Z,925.26
2017-04-06T02:08:42.626Z,925.27
2017-04-06T02:09:55.939Z,925.24
2017-04-06T02:11:09.213Z,925.25
2017-04-06T02:12:22.476Z,925.28
2017-04-06T02:13:35.247Z,925.25
2017-04-06T02:14:47.990Z,925.23
2017-04-06T02:16:01.288Z,925.25
2017-04-06T02:17:14.554Z,925.26
2017-04-06T02:18:27.854Z,925.26
2017-04-06T02:19:41.136Z,925.28
2017-04-06T02:20:54.369Z,925.26
2017-04-06T02:22:07.613Z,925.27
2017-04-06T02:23:20.941Z,925.29
2017-04-06T02:24:34.217Z,925.32
2017-04-06T02:25:47.512Z,925.34
2017-04-06T02:27:00.272Z,925.32
2017-04-06T02:28:13.582Z,925.35
2017-04-06T02:29:26.495Z,925.38
2017-04-06T02:30:39.242Z,925.35
2017-04-06T02:31:52.501Z,925.34
2017-04-06T02:33:05.807Z,925.39
2017-04-06T02:34:18.554Z,925.39
2017-04-06T02:35:31.971Z,925.44
2017-04-06T02:36:45.216Z,925.42
2017-04-06T02:37:57.943Z,925.38
2017-04-06T02:39:10.241Z,925.4
2017-04-06T02:40:23.031Z,925.34
2017-04-06T02:41:36.342Z,925.36
2017-04-06T02:42:49.623Z,925.35
2017-04-06T02:44:02.886Z,925.3
2017-04-06T02:45:16.302Z,925.31
2017-04-06T02:46:29.590Z,925.3
2017-04-06T02:47:42.872Z,925.26
2017-04-06T02:48:56.118Z,925.26
2017-04-06T02:50:08.895Z,925.25
2017-04-06T02:51:22.397Z,925.26
2017-04-06T02:52:35.661Z,925.25
2017-04-06T02:53:48.409Z,925.24
2017-04-06T02:55:01.676Z,925.25
2017-04-06T02:56:14.926Z,925.24
2017-04-06T02:57:28.586Z,925.24
2017-04-06T02:58:41.848Z,925.21
2017-04-06T02:59:55.134Z,925.24
2017-04-06T03:01:08.465Z,925.2
2017-04-06T03:02:21.726Z,925.21
2017-04-06T03:03:34.638Z,925.22
2017-04-06T03:04:47.905Z,925.2
2017-04-06T03:06:01.172Z,925.23
2017-04-06T03:07:14.601Z,925.25
2017-04-06T03:08:27.905Z,925.23
2017-04-06T03:09:41.253Z,925.24
2017-04-06T03:10:54.548Z,925.19
2017-04-06T03:12:07.854Z,925.22
2017-04-06T03:13:21.529Z,925.19
2017-04-06T03:14:34.797Z,925.18
2017-04-06T03:15:47.540Z,925.18
2017-04-06T03:17:00.813Z,925.11
2017-04-06T03:18:14.108Z,925.1
2017-04-06T03:19:27.773Z,925.11
2017-04-06T03:20:41.073Z,925.11
2017-04-06T03:21:54.392Z,925.12
2017-04-06T03:23:07.766Z,925.15
2017-04-06T03:24:21.052Z,925.1
2017-04-06T03:25:33.994Z,925.14
2017-04-06T03:26:47.242Z,925.12
2017-04-06T03:28:00.013Z,925.06
2017-04-06T03:29:12.950Z,925.03
2017-04-06T03:30:25.796Z,925.03
2017-04-06T03:31:38.644Z,925.01
2017-04-06T03:32:51.914Z,925.01
2017-04-06T03:34:05.196Z,925
2017-04-06T03:35:18.178Z,924.99
2017-04-06T03:36:30.932Z,924.97
2017-04-06T03:37:44.234Z,925.01
2017-04-06T03:38:57.510Z,924.99
2017-04-06T03:40:10.785Z,925
2017-04-06T03:41:23.819Z,924.99
2017-04-06T03:42:37.087Z,924.97
2017-04-06T03:43:50.358Z,924.97
2017-04-06T03:45:03.631Z,924.96
2017-04-06T03:46:16.900Z,924.91
2017-04-06T03:47:30.415Z,924.93
2017-04-06T03:48:43.675Z,924.91
2017-04-06T03:49:56.461Z,924.89
2017-04-06T03:51:09.773Z,924.9
2017-04-06T03:52:23.079Z,924.88
2017-04-06T03:53:36.466Z,924.91
2017-04-06T03:54:49.742Z,924.87
2017-04-06T03:56:02.995Z,924.88
2017-04-06T03:57:15.900Z,924.87
2017-04-06T03:58:28.661Z,924.88
2017-04-06T03:59:41.953Z,924.84
2017-04-06T04:00:55.233Z,924.84
2017-04-06T04:02:08.539Z,924.84
2017-04-06T04:03:21.578Z,924.82
2017-04-06T04:04:34.378Z,924.83
2017-04-06T04:05:47.651Z,924.84
2017-04-06T04:07:00.902Z,924.8
2017-04-06T04:08:13.678Z,924.78
2017-04-06T04:09:26.687Z,924.72
2017-04-06T04:10:39.453Z,924.67
2017-04-06T04:11:52.717Z,924.62
2017-04-06T04:13:06.017Z,924.6
2017-04-06T04:14:19.274Z,924.58
2017-04-06T04:15:32.724Z,924.56
2017-04-06T04:16:46.031Z,924.49
2017-04-06T04:17:58.757Z,924.5
2017-04-06T04:19:12.284Z,924.49
2017-04-06T04:20:25.560Z,924.48
2017-04-06T04:21:38.950Z,924.44
2017-04-06T04:22:52.229Z,924.44
2017-04-06T04:24:05.504Z,924.43
2017-04-06T04:25:18.902Z,924.41
2017-04-06T04:26:32.135Z,924.37
2017-04-06T04:27:45.413Z,924.4
2017-04-06T04:28:58.675Z,924.38
2017-04-06T04:30:11.979Z,924.42
2017-04-06T04:31:25.531Z,924.35
2017-04-06T04:32:38.827Z,924.35
2017-04-06T04:33:51.568Z,924.37
2017-04-06T04:35:04.855Z,924.36
2017-04-06T04:36:17.593Z,924.35
2017-04-06T04:37:31.021Z,924.35
2017-04-06T04:38:44.271Z,924.35
2017-04-06T04:39:57.019Z,924.33
2017-04-06T04:41:10.295Z,924.32
2017-04-06T04:42:23.591Z,924.34
2017-04-06T04:43:36.859Z,924.36
2017-04-06T04:44:50.169Z,924.38
2017-04-06T04:46:03.432Z,924.39
2017-04-06T04:47:16.967Z,924.37
2017-04-06T04:48:30.252Z,924.39
2017-04-06T04:49:43.578Z,924.37
2017-04-06T04:50:56.354Z,924.41
2017-04-06T04:52:09.641Z,924.39
2017-04-06T04:53:22.374Z,924.36
2017-04-06T04:54:35.647Z,924.35
2017-04-06T04:55:48.393Z,924.35
2017-04-06T04:57:01.670Z,924.36
2017-04-06T04:58:14.930Z,924.34
2017-04-06T04:59:28.226Z,924.35
2017-04-06T05:00:41.537Z,924.35
2017-04-06T05:01:54.819Z,924.35
2017-04-06T05:03:07.581Z,924.39
2017-04-06T05:04:20.309Z,924.39
2017-04-06T05:05:33.555Z,924.39
2017-04-06T05:06:46.808Z,924.41
2017-04-06T05:08:00.069Z,924.35
2017-04-06T05:09:12.829Z,924.36
2017-04-06T05:10:25.622Z,924.36
2017-04-06T05:11:38.858Z,924.35
2017-04-06T05:12:52.112Z,924.32
2017-04-06T05:14:05.385Z,924.37
2017-04-06T05:15:18.655Z,924.35
2017-04-06T05:16:31.985Z,924.35
2017-04-06T05:17:45.246Z,924.33
2017-04-06T05:18:58.504Z,924.32
2017-04-06T05:20:11.785Z,924.33
2017-04-06T05:21:25.073Z,924.28
2017-04-06T05:22:38.315Z,924.3
2017-04-06T05:23:51.587Z,924.27
2017-04-06T05:25:04.852Z,924.28
2017-04-06T05:26:18.103Z,924.29
2017-04-06T05:27:31.333Z,924.28
2017-04-06T05:28:44.112Z,924.28
2017-04-06T05:29:57.389Z,924.28
2017-04-06T05:31:09.652Z,924.27
2017-04-06T05:32:21.912Z,924.23
2017-04-06T05:33:35.190Z,924.22
2017-04-06T05:34:48.491Z,924.15
2017-04-06T05:36:01.755Z,924.15
2017-04-06T05:37:15.048Z,924.14
2017-04-06T05:38:28.289Z,924.07
2017-04-06T05:39:41.563Z,924.05
2017-04-06T05:40:54.880Z,924.02
2017-04-06T05:42:08.160Z,923.98
2017-04-06T05:43:20.395Z,923.97
2017-04-06T05:44:33.662Z,923.96
2017-04-06T05:45:46.942Z,923.95
2017-04-06T05:46:59.677Z,923.97
2017-04-06T05:48:12.922Z,923.94
2017-04-06T05:49:26.146Z,923.96
2017-04-06T05:50:38.878Z,923.94
2017-04-06T05:51:52.129Z,923.95
2017-04-06T05:53:04.878Z,923.96
2017-04-06T05:54:18.132Z,923.94
2017-04-06T05:55:31.432Z,923.95
2017-04-06T05:56:44.716Z,923.99
2017-04-06T05:57:57.964Z,923.98
2017-04-06T05:59:11.194Z,923.97
2017-04-06T06:00:24.460Z,923.99
2017-04-06T06:01:36.736Z,924
2017-04-06T06:02:49.498Z,924.01
2017-04-06T06:04:02.764Z,924.02
2017-04-06T06:05:16.002Z,924.03
2017-04-06T06:06:28.258Z,924
2017-04-06T06:07:41.506Z,924.03
2017-04-06T06:08:54.800Z,924.02
2017-04-06T06:10:08.103Z,924.03
2017-04-06T06:11:20.855Z,923.98
2017-04-06T06:12:33.645Z,924.02
2017-04-06T06:13:46.940Z,924.04
2017-04-06T06:14:59.162Z,924.05
2017-04-06T06:16:11.937Z,924.05
2017-04-06T06:17:24.213Z,924.11
2017-04-06T06:18:37.494Z,924.06
2017-04-06T06:19:50.268Z,924.06
2017-04-06T06:21:03.065Z,924.05
2017-04-06T06:22:16.312Z,924.04
2017-04-06T06:23:29.600Z,924.07
2017-04-06T06:24:42.865Z,924.06
2017-04-06T06:25:56.176Z,924.02
2017-04-06T06:27:08.933Z,924.01
2017-04-06T06:28:22.191Z,923.98
2017-04-06T06:29:35.446Z,923.93
2017-04-06T06:30:48.186Z,923.96
2017-04-06T06:32:01.431Z,923.9
2017-04-06T06:33:14.177Z,923.82
2017-04-06T06:34:26.407Z,923.93
2017-04-06T06:35:39.649Z,923.88
2017-04-06T06:36:52.927Z,923.86
2017-04-06T06:38:06.225Z,923.9
2017-04-06T06:39:18.990Z,923.87
2017-04-06T06:40:32.243Z,923.86
2017-04-06T06:41:45.183Z,923.87
2017-04-06T06:42:57.928Z,923.84
2017-04-06T06:44:11.178Z,923.81
2017-04-06T06:45:24.478Z,923.81
2017-04-06T06:46:37.223Z,923.81
2017-04-06T06:47:50.010Z,923.79
2017-04-06T06:49:03.314Z,923.76
2017-04-06T06:50:16.062Z,923.75
2017-04-06T06:51:29.296Z,923.73
2017-04-06T06:52:42.583Z,923.78
2017-04-06T06:53:55.363Z,923.77
2017-04-06T06:55:08.633Z,923.88
2017-04-06T06:56:20.857Z,923.91
2017-04-06T06:57:34.156Z,923.94
2017-04-06T06:58:47.421Z,923.94
2017-04-06T07:00:00.703Z,923.96
2017-04-06T07:01:14.004Z,923.98
2017-04-06T07:02:26.255Z,923.97
2017-04-06T07:03:39.540Z,924.03
2017-04-06T07:04:52.818Z,924.07
2017-04-06T07:06:06.125Z,924.1
2017-04-06T07:07:19.416Z,924.09
2017-04-06T07:08:31.631Z,924.02
2017-04-06T07:09:44.890Z,923.99
2017-04-06T07:10:58.151Z,923.95
2017-04-06T07:12:10.908Z,923.97
2017-04-06T07:13:23.653Z,923.93
2017-04-06T07:14:36.393Z,923.97
2017-04-06T07:15:49.141Z,924.01
2017-04-06T07:17:01.923Z,924.04
2017-04-06T07:18:15.221Z,924.1
2017-04-06T07:19:28.540Z,924.04
2017-04-06T07:20:41.278Z,924.06
2017-04-06T07:21:54.575Z,924.11
2017-04-06T07:23:07.343Z,924.08
2017-04-06T07:24:20.632Z,924.12
2017-04-06T07:25:33.404Z,924.21
2017-04-06T07:26:46.154Z,924.19
2017-04-06T07:27:59.423Z,924.25
2017-04-06T07:29:12.685Z,924.23
2017-04-06T07:30:25.977Z,924.2
2017-04-06T07:31:39.273Z,924.13
2017-04-06T07:32:52.054Z,924.11
2017-04-06T07:34:05.317Z,924.08
2017-04-06T07:35:18.091Z,924.03
2017-04-06T07:36:30.871Z,924.07
2017-04-06T07:37:44.177Z,924.08
2017-04-06T07:38:57.491Z,924.12
2017-04-06T07:40:10.764Z,924.13
2017-04-06T07:41:24.019Z,924.11
2017-04-06T07:42:36.808Z,924.22
2017-04-06T07:43:50.116Z,924.25
2017-04-06T07:45:03.411Z,924.28
2017-04-06T07:46:16.667Z,924.31
2017-04-06T07:47:29.956Z,924.35
2017-04-06T07:48:43.259Z,924.39
2017-04-06T07:49:56.023Z,924.44
2017-04-06T07:51:09.262Z,924.43
2017-04-06T07:52:22.009Z,924.47
2017-04-06T07:53:35.268Z,924.44
2017-04-06T07:54:48.568Z,924.45
2017-04-06T07:56:01.839Z,924.4
2017-04-06T07:57:14.587Z,924.44
2017-04-06T07:58:27.325Z,924.43
2017-04-06T07:59:40.636Z,924.44
2017-04-06T08:00:53.406Z,924.47
2017-04-06T08:02:06.675Z,924.41
2017-04-06T08:03:19.438Z,924.47
2017-04-06T08:04:32.184Z,924.49
2017-04-06T08:05:44.953Z,924.5
2017-04-06T08:06:58.198Z,924.54
2017-04-06T08:08:10.959Z,924.5
2017-04-06T08:09:23.749Z,924.55
2017-04-06T08:10:36.505Z,924.5
2017-04-06T08:11:49.797Z,924.46
2017-04-06T08:13:03.052Z,924.48
2017-04-06T08:14:16.302Z,924.47
2017-04-06T08:15:29.026Z,924.57
2017-04-06T08:16:41.761Z,924.58
2017-04-06T08:17:55.026Z,924.6
2017-04-06T08:19:08.345Z,924.63
2017-04-06T08:20:21.652Z,924.61
2017-04-06T08:21:34.439Z,924.65
2017-04-06T08:22:47.192Z,924.62
2017-04-06T08:24:00.484Z,924.57
2017-04-06T08:25:13.260Z,924.55
2017-04-06T08:26:26.105Z,924.57
2017-04-06T08:27:39.433Z,924.64
2017-04-06T08:28:51.697Z,924.74
2017-04-06T08:30:04.487Z,924.89
2017-04-06T08:31:17.263Z,925.05
2017-04-06T08:32:30.588Z,925.17
2017-04-06T08:33:42.845Z,925.34
2017-04-06T08:34:56.153Z,925.26
2017-04-06T08:36:08.932Z,925.13
2017-04-06T08:37:22.233Z,925.09
2017-04-06T08:38:34.979Z,925.04
2017-04-06T08:39:47.760Z,925.07
2017-04-06T08:41:01.053Z,925.02
2017-04-06T08:42:14.337Z,925.04
2017-04-06T08:43:27.113Z,925.1
2017-04-06T08:44:39.870Z,925.13
2017-04-06T08:45:52.123Z,925.22
2017-04-06T08:47:04.871Z,925.26
2017-04-06T08:48:17.643Z,925.28
2017-04-06T08:49:30.878Z,925.32
2017-04-06T08:50:44.099Z,925.36
2017-04-06T08:51:57.335Z,925.37
2017-04-06T08:53:10.578Z,925.4
2017-04-06T08:54:23.360Z,925.45
2017-04-06T08:55:36.150Z,925.43
2017-04-06T08:56:49.399Z,925.51
2017-04-06T08:58:02.188Z,925.52
2017-04-06T08:59:15.495Z,925.55
2017-04-06T09:00:28.273Z,925.51
2017-04-06T09:01:41.548Z,925.56
2017-04-06T09:02:54.291Z,925.59
2017-04-06T09:04:07.541Z,925.52
2017-04-06T09:05:20.313Z,925.51
2017-04-06T09:06:33.072Z,925.58
2017-04-06T09:07:46.347Z,925.59
2017-04-06T09:08:59.104Z,925.59
2017-04-06T09:10:11.844Z,925.62
2017-04-06T09:11:25.093Z,925.61
2017-04-06T09:12:38.370Z,925.59
2017-04-06T09:13:51.118Z,925.55
2017-04-06T09:15:03.334Z,925.6
2017-04-06T09:16:16.077Z,925.61
2017-04-06T09:17:28.828Z,925.59
2017-04-06T09:18:41.570Z,925.55
2017-04-06T09:19:54.846Z,925.51
2017-04-06T09:21:07.569Z,925.54
2017-04-06T09:22:20.840Z,925.52
2017-04-06T09:23:33.056Z,925.54
2017-04-06T09:24:46.335Z,925.54
2017-04-06T09:27:16.938Z,925.51
2017-04-06T09:28:29.735Z,925.47
2017-04-06T09:29:43.007Z,925.47
2017-04-06T09:30:56.294Z,925.45
2017-04-06T09:32:09.039Z,925.42
2017-04-06T09:33:22.311Z,925.44
2017-04-06T09:34:35.066Z,925.45
2017-04-06T09:35:47.800Z,925.46
2017-04-06T09:37:00.550Z,925.5
2017-04-06T09:38:13.330Z,925.51
2017-04-06T09:39:26.101Z,925.51
2017-04-06T09:40:39.360Z,925.53
2017-04-06T09:41:52.131Z,925.5
2017-04-06T09:43:05.397Z,925.51
2017-04-06T09:44:18.687Z,925.48
2017-04-06T09:45:31.459Z,925.46
2017-04-06T09:46:44.246Z,925.45
2017-04-06T09:47:57.002Z,925.44
2017-04-06T09:49:10.257Z,925.4
2017-04-06T09:50:23.551Z,925.44
2017-04-06T09:51:36.333Z,925.39
2017-04-06T09:52:49.580Z,925.47
2017-04-06T09:54:02.826Z,925.41
2017-04-06T09:55:16.115Z,925.4
2017-04-06T09:56:29.384Z,925.44
2017-04-06T09:57:42.137Z,925.41
2017-04-06T09:58:55.388Z,925.4
2017-04-06T10:00:08.153Z,925.48
2017-04-06T10:01:21.459Z,925.44
2017-04-06T10:02:34.235Z,925.44
2017-04-06T10:03:47.506Z,925.55
2017-04-06T10:05:00.273Z,925.53
2017-04-06T10:06:13.551Z,925.59
2017-04-06T10:07:26.845Z,925.59
2017-04-06T10:08:40.127Z,925.58
2017-04-06T10:09:53.379Z,925.58
2017-04-06T10:11:05.646Z,925.61
2017-04-06T10:12:18.944Z,925.58
2017-04-06T10:13:32.235Z,925.59
2017-04-06T10:14:45.505Z,925.61
2017-04-06T10:15:58.762Z,925.58
2017-04-06T10:17:12.052Z,925.67
2017-04-06T10:18:24.813Z,925.63
2017-04-06T10:19:37.586Z,925.68
2017-04-06T10:20:50.346Z,925.66
2017-04-06T10:22:03.662Z,925.68
2017-04-06T10:23:16.423Z,925.67
2017-04-06T10:24:29.723Z,925.72
2017-04-06T10:25:43.009Z,925.74
2017-04-06T10:26:55.745Z,925.73
2017-04-06T10:28:09.020Z,925.68
2017-04-06T10:29:22.252Z,925.71
2017-04-06T10:30:35.007Z,925.73
2017-04-06T10:31:47.807Z,925.72
2017-04-06T10:33:00.531Z,925.72
2017-04-06T10:34:13.791Z,925.73
2017-04-06T10:35:27.059Z,925.74
2017-04-06T10:36:39.862Z,925.79
2017-04-06T10:37:52.605Z,925.76
2017-04-06T10:39:05.874Z,925.8
2017-04-06T10:40:18.642Z,925.82
2017-04-06T10:41:31.885Z,925.8
2017-04-06T10:42:45.138Z,925.88
2017-04-06T10:43:58.412Z,925.91
2017-04-06T10:45:11.736Z,925.94
2017-04-06T10:46:24.987Z,925.99
2017-04-06T10:47:37.730Z,926.02
2017-04-06T10:48:50.993Z,926.06
2017-04-06T10:50:04.249Z,926.07
2017-04-06T10:51:17.012Z,926.13
2017-04-06T10:52:29.772Z,926.13
2017-04-06T10:53:43.055Z,926.11
2017-04-06T10:54:56.365Z,926.24
2017-04-06T10:56:09.649Z,926.3
2017-04-06T10:57:22.398Z,926.45
2017-04-06T10:58:35.681Z,926.44
2017-04-06T10:59:49.003Z,926.57
2017-04-06T11:01:02.290Z,926.64
2017-04-06T11:02:15.580Z,926.74
2017-04-06T11:03:27.818Z,926.76
2017-04-06T11:04:41.065Z,926.77
2017-04-06T11:05:54.352Z,926.91
2017-04-06T11:07:07.617Z,926.92
2017-04-06T11:08:20.368Z,927.04
2017-04-06T11:09:33.626Z,927.02
2017-04-06T11:10:46.894Z,927.03
2017-04-06T11:12:00.143Z,927
2017-04-06T11:13:12.399Z,927.14
2017-04-06T11:14:25.678Z,927.09
2017-04-06T11:15:38.952Z,927.28
2017-04-06T11:16:51.828Z,927.27
2017-04-06T11:18:04.441Z,927.28
2017-04-06T11:19:17.698Z,927.34
2017-04-06T11:20:30.983Z,927.37
2017-04-06T11:21:43.255Z,927.21
2017-04-06T11:22:56.515Z,927.23
2017-04-06T11:24:09.255Z,927.31
2017-04-06T11:25:22.538Z,927.27
2017-04-06T11:26:35.288Z,927.3
2017-04-06T11:27:48.070Z,927.37
2017-04-06T11:29:01.355Z,927.34
2017-04-06T11:30:14.122Z,927.33
2017-04-06T11:31:27.408Z,927.4
2017-04-06T11:32:40.214Z,927.38
2017-04-06T11:33:53.492Z,927.33
2017-04-06T11:35:07.563Z,927.37
2017-04-06T11:36:20.862Z,927.34
2017-04-06T11:37:33.652Z,927.3
2017-04-06T11:38:46.409Z,927.28
2017-04-06T11:39:59.680Z,927.26
2017-04-06T11:41:12.410Z,927.29
2017-04-06T11:42:25.158Z,927.24
2017-04-06T11:43:38.413Z,927.24
2017-04-06T11:44:51.689Z,927.28
2017-04-06T11:46:04.945Z,927.31
2017-04-06T11:47:18.242Z,927.27
2017-04-06T11:48:31.550Z,927.26
2017-04-06T11:49:44.834Z,927.3
2017-04-06T11:50:58.100Z,927.31
2017-04-06T11:52:10.845Z,927.27
2017-04-06T11:53:24.132Z,927.26
2017-04-06T11:54:36.900Z,927.3
2017-04-06T11:55:50.195Z,927.29
2017-04-06T11:57:03.456Z,927.25
2017-04-06T11:58:16.767Z,927.28
2017-04-06T11:59:30.017Z,927.25
2017-04-06T12:00:42.772Z,927.22
2017-04-06T12:01:56.044Z,927.27
2017-04-06T12:03:09.300Z,927.25
2017-04-06T12:04:22.597Z,927.23
2017-04-06T12:05:34.840Z,927.23
2017-04-06T12:06:48.110Z,927.18
2017-04-06T12:08:01.361Z,927.2
2017-04-06T12:09:14.661Z,927.18
2017-04-06T12:10:27.942Z,927.2
2017-04-06T12:11:41.219Z,927.15
2017-04-06T12:12:54.497Z,927.17
2017-04-06T12:14:07.254Z,927.14
2017-04-06T12:15:20.030Z,927.14
2017-04-06T12:16:33.286Z,927.17
2017-04-06T12:17:46.566Z,927.12
2017-04-06T12:18:59.345Z,927.1
2017-04-06T12:20:12.123Z,927.09
2017-04-06T12:21:25.473Z,927.09
2017-04-06T12:22:38.238Z,926.98
2017-04-06T12:24:22.695Z,927.18
2017-04-06T12:25:35.449Z,927.21
2017-04-06T12:26:48.702Z,927.17
2017-04-06T12:28:01.999Z,927.21
2017-04-06T12:29:15.294Z,927.29
2017-04-06T12:30:28.621Z,927.29
2017-04-06T12:31:41.393Z,927.24
2017-04-06T12:32:54.670Z,927.25
2017-04-06T12:34:07.979Z,927.27
2017-04-06T12:35:21.254Z,927.25
2017-04-06T12:36:34.092Z,927.29
2017-04-06T12:37:46.837Z,927.32
2017-04-06T12:39:00.128Z,927.31
2017-04-06T12:40:12.378Z,927.28
2017-04-06T12:41:25.133Z,927.27
2017-04-06T12:42:38.411Z,927.26
2017-04-06T12:43:51.703Z,927.31
2017-04-06T12:45:04.995Z,927.28
2017-04-06T12:46:18.312Z,927.29
2017-04-06T12:47:31.602Z,927.28
2017-04-06T12:48:44.349Z,927.25
2017-04-06T12:49:57.643Z,927.21
2017-04-06T12:51:10.397Z,927.25
2017-04-06T12:52:23.686Z,927.25
2017-04-06T12:53:36.975Z,927.25
2017-04-06T12:54:50.266Z,927.22
2017-04-06T12:56:03.037Z,927.18
2017-04-06T12:57:15.258Z,927.18
2017-04-06T12:58:28.559Z,927.21
2017-04-06T12:59:41.848Z,927.15
2017-04-06T13:00:55.109Z,927.09
2017-04-06T13:02:08.394Z,927.13
2017-04-06T13:03:21.703Z,927.14
2017-04-06T13:04:34.974Z,927.15
2017-04-06T13:05:47.709Z,927.08
2017-04-06T13:07:00.970Z,927.13
2017-04-06T13:08:14.228Z,927.1
2017-04-06T13:09:27.528Z,927.12
2017-04-06T13:10:39.810Z,927.14
2017-04-06T13:11:53.106Z,927.1
2017-04-06T13:13:05.890Z,927.14
2017-04-06T13:14:19.187Z,927.14
2017-04-06T13:15:31.938Z,927.16
2017-04-06T13:16:45.219Z,927.09
2017-04-06T13:17:57.987Z,927.17
2017-04-06T13:19:11.269Z,927.12
2017-04-06T13:20:24.552Z,927.13
2017-04-06T13:21:37.294Z,927.14
2017-04-06T13:22:50.622Z,927.23
2017-04-06T13:24:03.927Z,927.09
2017-04-06T13:25:17.218Z,927.16
2017-04-06T13:26:29.976Z,927.16
2017-04-06T13:27:42.772Z,927.13
2017-04-06T13:28:56.064Z,927.1
2017-04-06T13:30:09.334Z,927.1
2017-04-06T13:31:22.611Z,927.05
2017-04-06T13:32:35.884Z,926.96
2017-04-06T13:33:49.185Z,927.05
2017-04-06T13:35:02.461Z,927.05
2017-04-06T13:36:15.770Z,927
2017-04-06T13:37:29.059Z,927.04
2017-04-06T13:38:41.824Z,927.02
2017-04-06T13:39:54.615Z,926.97
2017-04-06T13:41:07.385Z,926.98
2017-04-06T13:42:20.641Z,926.98
2017-04-06T13:43:33.916Z,926.95
2017-04-06T13:44:47.181Z,926.94
2017-04-06T13:46:00.087Z,926.98
2017-04-06T13:47:12.838Z,926.91
2017-04-06T13:48:26.089Z,926.91
2017-04-06T13:49:39.351Z,926.92
2017-04-06T13:50:52.613Z,926.89
2017-04-06T13:52:05.856Z,926.86
2017-04-06T13:53:19.128Z,926.81
2017-04-06T13:54:32.467Z,926.78
2017-04-06T13:55:45.736Z,926.85
2017-04-06T13:56:59.020Z,926.78
2017-04-06T13:58:12.288Z,926.75
2017-04-06T13:59:25.059Z,926.79
2017-04-06T14:00:37.806Z,926.81
2017-04-06T14:01:51.058Z,926.73
2017-04-06T14:03:04.294Z,926.73
2017-04-06T14:04:17.053Z,926.73
2017-04-06T14:05:30.321Z,926.68
2017-04-06T14:06:43.569Z,926.66
2017-04-06T14:07:56.878Z,926.69
2017-04-06T14:09:10.175Z,926.64
2017-04-06T14:10:23.476Z,926.62
2017-04-06T14:11:36.241Z,926.61
2017-04-06T14:12:49.010Z,926.59
2017-04-06T14:14:02.320Z,926.59
2017-04-06T14:15:15.105Z,926.6
2017-04-06T14:16:28.361Z,926.57
2017-04-06T14:17:41.631Z,926.53
2017-04-06T14:18:54.910Z,926.49
2017-04-06T14:20:08.201Z,926.48
2017-04-06T14:21:21.469Z,926.47
2017-04-06T14:22:34.221Z,926.45
2017-04-06T14:23:46.985Z,926.43
2017-04-06T14:25:00.241Z,926.44
2017-04-06T14:26:13.527Z,926.45
2017-04-06T14:27:26.810Z,926.37
2017-04-06T14:28:40.071Z,926.4
2017-04-06T14:29:52.827Z,926.42
2017-04-06T14:31:05.754Z,926.35
2017-04-06T14:32:19.013Z,926.28
2017-04-06T14:33:32.280Z,926.34
2017-04-06T14:34:45.646Z,926.3
2017-04-06T14:35:58.932Z,926.3
2017-04-06T14:37:12.221Z,926.24
2017-04-06T14:38:24.999Z,926.25
2017-04-06T14:39:37.803Z,926.1
2017-04-06T14:40:51.060Z,926.11
2017-04-06T14:42:04.335Z,926.25
2017-04-06T14:43:17.102Z,926.19
2017-04-06T14:44:30.380Z,926.14
2017-04-06T14:45:42.650Z,926.11
2017-04-06T14:46:55.922Z,926.12
2017-04-06T14:48:09.179Z,926.04
2017-04-06T14:49:22.462Z,926.11
2017-04-06T14:50:35.316Z,926.05
2017-04-06T14:51:48.630Z,926.04
2017-04-06T14:53:01.412Z,926.1
2017-04-06T14:54:14.700Z,926.05
2017-04-06T14:55:27.955Z,925.99
2017-04-06T14:56:40.216Z,926.03
2017-04-06T14:57:52.992Z,925.97
2017-04-06T14:59:05.731Z,925.91
2017-04-06T15:00:19.019Z,925.98
2017-04-06T15:01:32.279Z,925.88
2017-04-06T15:02:45.509Z,925.9
2017-04-06T15:03:58.764Z,925.86
2017-04-06T15:05:11.997Z,925.86
2017-04-06T15:06:25.263Z,925.84
2017-04-06T15:07:38.544Z,925.8
2017-04-06T15:08:51.798Z,925.81
2017-04-06T15:10:05.052Z,925.77
2017-04-06T15:11:18.320Z,925.74
2017-04-06T15:12:31.578Z,925.78
2017-04-06T15:13:44.339Z,925.76
2017-04-06T15:14:57.599Z,925.74
2017-04-06T15:16:10.355Z,925.66
2017-04-06T15:17:23.611Z,925.65